sensor_id;sensor_type;location;lat;lon;timestamp;P1;durP1;ratioP1;P2;durP2;ratioP2
27209;SDS011;14721;42.668;23.386;2022-11-20T00:01:20;10.45;;;5.20;;
27209;SDS011;14721;42.668;23.386;2022-11-20T00:03:48;8.85;;;5.40;;
27209;SDS011;14721;42.668;23.386;2022-11-20T00:06:17;13.43;;;5.72;;
27209;SDS011;14721;42.668;23.386;2022-11-20T00:08:45;10.70;;;5.50;;
27209;SDS011;14721;42.668;23.386;2022-11-20T00:11:14;12.77;;;6.70;;
27209;SDS011;14721;42.668;23.386;2022-11-20T00:13:44;10.45;;;5.68;;
27209;SDS011;14721;42.668;23.386;2022-11-20T00:16:14;11.40;;;5.68;;
27209;SDS011;14721;42.668;23.386;2022-11-20T00:18:43;8.88;;;5.82;;
27209;SDS011;14721;42.668;23.386;2022-11-20T00:21:13;8.65;;;4.82;;
27209;SDS011;14721;42.668;23.386;2022-11-20T00:23:52;8.85;;;5.43;;
27209;SDS011;14721;42.668;23.386;2022-11-20T00:26:20;12.18;;;5.13;;
27209;SDS011;14721;42.668;23.386;2022-11-20T00:28:51;8.98;;;4.85;;
27209;SDS011;14721;42.668;23.386;2022-11-20T00:31:22;6.65;;;4.28;;
27209;SDS011;14721;42.668;23.386;2022-11-20T00:33:48;9.35;;;4.30;;
27209;SDS011;14721;42.668;23.386;2022-11-20T00:36:18;6.45;;;3.60;;
27209;SDS011;14721;42.668;23.386;2022-11-20T00:38:46;7.72;;;4.40;;
27209;SDS011;14721;42.668;23.386;2022-11-20T00:41:14;7.38;;;3.67;;
27209;SDS011;14721;42.668;23.386;2022-11-20T00:43:41;8.88;;;5.00;;
27209;SDS011;14721;42.668;23.386;2022-11-20T00:46:08;7.03;;;2.65;;
27209;SDS011;14721;42.668;23.386;2022-11-20T00:48:37;4.90;;;2.70;;
27209;SDS011;14721;42.668;23.386;2022-11-20T00:51:04;8.30;;;3.80;;
27209;SDS011;14721;42.668;23.386;2022-11-20T00:53:31;8.57;;;3.90;;
27209;SDS011;14721;42.668;23.386;2022-11-20T00:58:23;7.25;;;3.50;;
27209;SDS011;14721;42.668;23.386;2022-11-20T01:00:50;10.93;;;3.80;;
27209;SDS011;14721;42.668;23.386;2022-11-20T01:03:35;8.50;;;4.18;;
27209;SDS011;14721;42.668;23.386;2022-11-20T01:06:09;8.48;;;2.80;;
27209;SDS011;14721;42.668;23.386;2022-11-20T01:08:36;5.75;;;3.10;;
27209;SDS011;14721;42.668;23.386;2022-11-20T01:11:04;10.90;;;3.75;;
27209;SDS011;14721;42.668;23.386;2022-11-20T01:13:35;6.20;;;2.10;;
27209;SDS011;14721;42.668;23.386;2022-11-20T01:16:05;4.63;;;2.03;;
27209;SDS011;14721;42.668;23.386;2022-11-20T01:18:36;4.95;;;3.00;;
27209;SDS011;14721;42.668;23.386;2022-11-20T01:21:08;4.15;;;2.40;;
27209;SDS011;14721;42.668;23.386;2022-11-20T01:23:39;6.50;;;2.60;;
27209;SDS011;14721;42.668;23.386;2022-11-20T01:26:08;5.10;;;2.35;;
27209;SDS011;14721;42.668;23.386;2022-11-20T01:28:35;4.03;;;2.50;;
27209;SDS011;14721;42.668;23.386;2022-11-20T01:31:01;4.20;;;2.20;;
27209;SDS011;14721;42.668;23.386;2022-11-20T01:33:36;5.20;;;2.70;;
27209;SDS011;14721;42.668;23.386;2022-11-20T01:36:05;6.32;;;2.33;;
27209;SDS011;14721;42.668;23.386;2022-11-20T01:38:31;3.47;;;2.47;;
27209;SDS011;14721;42.668;23.386;2022-11-20T01:40:57;6.57;;;3.35;;
27209;SDS011;14721;42.668;23.386;2022-11-20T01:43:23;4.43;;;2.67;;
27209;SDS011;14721;42.668;23.386;2022-11-20T01:45:58;4.95;;;2.78;;
27209;SDS011;14721;42.668;23.386;2022-11-20T01:48:44;4.95;;;2.85;;
27209;SDS011;14721;42.668;23.386;2022-11-20T01:51:19;5.68;;;2.90;;
27209;SDS011;14721;42.668;23.386;2022-11-20T01:53:52;4.55;;;2.50;;
27209;SDS011;14721;42.668;23.386;2022-11-20T01:56:22;7.60;;;3.22;;
27209;SDS011;14721;42.668;23.386;2022-11-20T01:58:54;6.65;;;3.13;;
27209;SDS011;14721;42.668;23.386;2022-11-20T02:01:23;5.22;;;2.92;;
27209;SDS011;14721;42.668;23.386;2022-11-20T02:03:49;5.72;;;2.95;;
27209;SDS011;14721;42.668;23.386;2022-11-20T02:09:20;7.78;;;2.15;;
27209;SDS011;14721;42.668;23.386;2022-11-20T02:11:46;5.40;;;2.60;;
27209;SDS011;14721;42.668;23.386;2022-11-20T02:14:11;4.75;;;2.30;;
27209;SDS011;14721;42.668;23.386;2022-11-20T02:16:37;6.53;;;2.05;;
27209;SDS011;14721;42.668;23.386;2022-11-20T02:19:09;5.70;;;2.67;;
27209;SDS011;14721;42.668;23.386;2022-11-20T02:24:35;3.92;;;2.10;;
27209;SDS011;14721;42.668;23.386;2022-11-20T02:27:06;4.70;;;2.75;;
27209;SDS011;14721;42.668;23.386;2022-11-20T02:32:26;4.45;;;1.77;;
27209;SDS011;14721;42.668;23.386;2022-11-20T02:34:54;10.10;;;2.03;;
27209;SDS011;14721;42.668;23.386;2022-11-20T02:37:20;4.82;;;1.30;;
27209;SDS011;14721;42.668;23.386;2022-11-20T02:39:47;6.22;;;1.67;;
27209;SDS011;14721;42.668;23.386;2022-11-20T02:42:15;3.13;;;1.48;;
27209;SDS011;14721;42.668;23.386;2022-11-20T02:44:41;4.00;;;1.60;;
27209;SDS011;14721;42.668;23.386;2022-11-20T02:47:06;7.05;;;1.17;;
27209;SDS011;14721;42.668;23.386;2022-11-20T02:49:33;5.18;;;1.52;;
27209;SDS011;14721;42.668;23.386;2022-11-20T02:52:01;3.55;;;1.17;;
27209;SDS011;14721;42.668;23.386;2022-11-20T02:54:27;3.20;;;1.23;;
27209;SDS011;14721;42.668;23.386;2022-11-20T02:56:52;1.58;;;1.08;;
27209;SDS011;14721;42.668;23.386;2022-11-20T02:59:18;3.33;;;1.55;;
27209;SDS011;14721;42.668;23.386;2022-11-20T03:01:44;2.05;;;0.90;;
27209;SDS011;14721;42.668;23.386;2022-11-20T03:04:10;5.13;;;1.40;;
27209;SDS011;14721;42.668;23.386;2022-11-20T03:06:36;3.40;;;1.27;;
27209;SDS011;14721;42.668;23.386;2022-11-20T03:09:01;3.92;;;0.95;;
27209;SDS011;14721;42.668;23.386;2022-11-20T03:11:28;1.65;;;0.90;;
27209;SDS011;14721;42.668;23.386;2022-11-20T03:13:54;3.63;;;1.67;;
27209;SDS011;14721;42.668;23.386;2022-11-20T03:16:20;1.52;;;0.75;;
27209;SDS011;14721;42.668;23.386;2022-11-20T03:18:48;2.97;;;1.05;;
27209;SDS011;14721;42.668;23.386;2022-11-20T03:21:15;3.33;;;0.73;;
27209;SDS011;14721;42.668;23.386;2022-11-20T03:23:42;4.75;;;0.88;;
27209;SDS011;14721;42.668;23.386;2022-11-20T03:28:37;2.00;;;0.50;;
27209;SDS011;14721;42.668;23.386;2022-11-20T03:31:06;2.53;;;0.57;;
27209;SDS011;14721;42.668;23.386;2022-11-20T03:33:37;2.08;;;0.63;;
27209;SDS011;14721;42.668;23.386;2022-11-20T03:36:05;0.90;;;0.57;;
27209;SDS011;14721;42.668;23.386;2022-11-20T03:38:33;2.65;;;0.60;;
27209;SDS011;14721;42.668;23.386;2022-11-20T03:41:00;2.78;;;0.80;;
27209;SDS011;14721;42.668;23.386;2022-11-20T03:43:30;2.67;;;0.60;;
27209;SDS011;14721;42.668;23.386;2022-11-20T03:45:56;4.03;;;1.40;;
27209;SDS011;14721;42.668;23.386;2022-11-20T03:48:22;1.63;;;0.35;;
27209;SDS011;14721;42.668;23.386;2022-11-20T03:50:47;2.05;;;0.70;;
27209;SDS011;14721;42.668;23.386;2022-11-20T03:53:14;4.78;;;0.73;;
27209;SDS011;14721;42.668;23.386;2022-11-20T03:55:41;1.67;;;0.60;;
27209;SDS011;14721;42.668;23.386;2022-11-20T03:58:07;4.30;;;0.63;;
27209;SDS011;14721;42.668;23.386;2022-11-20T04:00:34;2.17;;;0.82;;
27209;SDS011;14721;42.668;23.386;2022-11-20T04:03:00;2.47;;;0.75;;
27209;SDS011;14721;42.668;23.386;2022-11-20T04:05:27;1.38;;;0.57;;
27209;SDS011;14721;42.668;23.386;2022-11-20T04:07:53;2.47;;;0.80;;
27209;SDS011;14721;42.668;23.386;2022-11-20T04:10:19;3.60;;;0.85;;
27209;SDS011;14721;42.668;23.386;2022-11-20T04:12:45;2.05;;;0.75;;
27209;SDS011;14721;42.668;23.386;2022-11-20T04:15:11;1.40;;;0.80;;
27209;SDS011;14721;42.668;23.386;2022-11-20T04:17:36;1.95;;;0.55;;
27209;SDS011;14721;42.668;23.386;2022-11-20T04:20:02;1.30;;;0.70;;
27209;SDS011;14721;42.668;23.386;2022-11-20T04:22:28;3.45;;;1.33;;
27209;SDS011;14721;42.668;23.386;2022-11-20T04:24:54;1.65;;;0.60;;
27209;SDS011;14721;42.668;23.386;2022-11-20T04:27:20;2.13;;;1.23;;
27209;SDS011;14721;42.668;23.386;2022-11-20T04:29:46;2.47;;;0.70;;
27209;SDS011;14721;42.668;23.386;2022-11-20T04:32:11;1.58;;;1.02;;
27209;SDS011;14721;42.668;23.386;2022-11-20T04:34:37;2.13;;;0.90;;
27209;SDS011;14721;42.668;23.386;2022-11-20T04:37:03;2.17;;;0.65;;
27209;SDS011;14721;42.668;23.386;2022-11-20T04:39:30;2.95;;;0.60;;
27209;SDS011;14721;42.668;23.386;2022-11-20T04:41:56;3.75;;;0.82;;
27209;SDS011;14721;42.668;23.386;2022-11-20T04:44:40;0.95;;;0.60;;
27209;SDS011;14721;42.668;23.386;2022-11-20T04:47:06;3.28;;;0.80;;
27209;SDS011;14721;42.668;23.386;2022-11-20T04:49:32;1.65;;;0.57;;
27209;SDS011;14721;42.668;23.386;2022-11-20T04:51:59;1.90;;;0.70;;
27209;SDS011;14721;42.668;23.386;2022-11-20T04:54:25;1.30;;;0.77;;
27209;SDS011;14721;42.668;23.386;2022-11-20T04:56:51;1.85;;;0.80;;
27209;SDS011;14721;42.668;23.386;2022-11-20T04:59:17;2.65;;;0.75;;
27209;SDS011;14721;42.668;23.386;2022-11-20T05:01:44;1.70;;;0.55;;
27209;SDS011;14721;42.668;23.386;2022-11-20T05:04:10;6.25;;;1.00;;
27209;SDS011;14721;42.668;23.386;2022-11-20T05:06:37;3.03;;;0.60;;
27209;SDS011;14721;42.668;23.386;2022-11-20T05:09:03;1.30;;;0.60;;
27209;SDS011;14721;42.668;23.386;2022-11-20T05:11:29;1.75;;;0.50;;
27209;SDS011;14721;42.668;23.386;2022-11-20T05:13:54;2.13;;;0.65;;
27209;SDS011;14721;42.668;23.386;2022-11-20T05:16:23;1.63;;;0.40;;
27209;SDS011;14721;42.668;23.386;2022-11-20T05:18:51;1.88;;;0.50;;
27209;SDS011;14721;42.668;23.386;2022-11-20T05:21:18;1.52;;;0.80;;
27209;SDS011;14721;42.668;23.386;2022-11-20T05:23:44;0.52;;;0.40;;
27209;SDS011;14721;42.668;23.386;2022-11-20T05:26:15;2.17;;;0.60;;
27209;SDS011;14721;42.668;23.386;2022-11-20T05:28:42;1.50;;;0.52;;
27209;SDS011;14721;42.668;23.386;2022-11-20T05:31:13;4.38;;;0.90;;
27209;SDS011;14721;42.668;23.386;2022-11-20T05:33:49;1.90;;;0.65;;
27209;SDS011;14721;42.668;23.386;2022-11-20T05:36:15;2.72;;;0.80;;
27209;SDS011;14721;42.668;23.386;2022-11-20T05:38:42;2.40;;;0.50;;
27209;SDS011;14721;42.668;23.386;2022-11-20T05:41:09;1.85;;;0.80;;
27209;SDS011;14721;42.668;23.386;2022-11-20T05:43:37;4.05;;;1.00;;
27209;SDS011;14721;42.668;23.386;2022-11-20T05:46:05;2.67;;;1.00;;
27209;SDS011;14721;42.668;23.386;2022-11-20T05:48:32;4.57;;;1.17;;
27209;SDS011;14721;42.668;23.386;2022-11-20T05:50:58;3.88;;;0.70;;
27209;SDS011;14721;42.668;23.386;2022-11-20T05:53:25;2.45;;;0.82;;
27209;SDS011;14721;42.668;23.386;2022-11-20T05:56:04;4.88;;;0.73;;
27209;SDS011;14721;42.668;23.386;2022-11-20T05:58:33;4.32;;;0.90;;
27209;SDS011;14721;42.668;23.386;2022-11-20T06:04:02;3.20;;;0.98;;
27209;SDS011;14721;42.668;23.386;2022-11-20T06:06:27;2.67;;;1.00;;
27209;SDS011;14721;42.668;23.386;2022-11-20T06:08:54;2.58;;;1.10;;
27209;SDS011;14721;42.668;23.386;2022-11-20T06:11:20;5.22;;;1.40;;
27209;SDS011;14721;42.668;23.386;2022-11-20T06:13:46;4.43;;;1.17;;
27209;SDS011;14721;42.668;23.386;2022-11-20T06:16:14;3.97;;;1.33;;
27209;SDS011;14721;42.668;23.386;2022-11-20T06:18:43;3.15;;;1.23;;
27209;SDS011;14721;42.668;23.386;2022-11-20T06:21:10;3.72;;;1.10;;
27209;SDS011;14721;42.668;23.386;2022-11-20T06:23:41;3.05;;;0.90;;
27209;SDS011;14721;42.668;23.386;2022-11-20T06:26:11;6.47;;;1.30;;
27209;SDS011;14721;42.668;23.386;2022-11-20T06:28:40;3.30;;;1.13;;
27209;SDS011;14721;42.668;23.386;2022-11-20T06:31:11;3.40;;;1.05;;
27209;SDS011;14721;42.668;23.386;2022-11-20T06:33:38;5.30;;;2.08;;
27209;SDS011;14721;42.668;23.386;2022-11-20T06:36:05;3.17;;;1.80;;
27209;SDS011;14721;42.668;23.386;2022-11-20T06:38:33;3.05;;;0.90;;
27209;SDS011;14721;42.668;23.386;2022-11-20T06:40:59;3.42;;;1.38;;
27209;SDS011;14721;42.668;23.386;2022-11-20T06:43:25;2.42;;;0.77;;
27209;SDS011;14721;42.668;23.386;2022-11-20T06:45:54;2.55;;;0.98;;
27209;SDS011;14721;42.668;23.386;2022-11-20T06:48:22;4.75;;;1.00;;
27209;SDS011;14721;42.668;23.386;2022-11-20T06:50:48;2.03;;;0.90;;
27209;SDS011;14721;42.668;23.386;2022-11-20T06:53:15;5.00;;;1.65;;
27209;SDS011;14721;42.668;23.386;2022-11-20T06:55:42;1.70;;;0.80;;
27209;SDS011;14721;42.668;23.386;2022-11-20T06:58:09;5.85;;;1.00;;
27209;SDS011;14721;42.668;23.386;2022-11-20T07:00:35;2.38;;;0.88;;
27209;SDS011;14721;42.668;23.386;2022-11-20T07:03:05;2.88;;;0.98;;
27209;SDS011;14721;42.668;23.386;2022-11-20T07:05:32;4.80;;;0.75;;
27209;SDS011;14721;42.668;23.386;2022-11-20T07:07:58;3.63;;;0.90;;
27209;SDS011;14721;42.668;23.386;2022-11-20T07:10:25;2.60;;;0.73;;
27209;SDS011;14721;42.668;23.386;2022-11-20T07:12:54;1.63;;;0.68;;
27209;SDS011;14721;42.668;23.386;2022-11-20T07:15:20;7.43;;;2.70;;
27209;SDS011;14721;42.668;23.386;2022-11-20T07:17:48;1.90;;;1.35;;
27209;SDS011;14721;42.668;23.386;2022-11-20T07:20:14;4.47;;;1.30;;
27209;SDS011;14721;42.668;23.386;2022-11-20T07:22:40;3.88;;;1.10;;
27209;SDS011;14721;42.668;23.386;2022-11-20T07:25:06;2.15;;;0.80;;
27209;SDS011;14721;42.668;23.386;2022-11-20T07:27:34;4.78;;;1.30;;
27209;SDS011;14721;42.668;23.386;2022-11-20T07:30:00;5.53;;;1.65;;
27209;SDS011;14721;42.668;23.386;2022-11-20T07:32:28;5.18;;;1.02;;
27209;SDS011;14721;42.668;23.386;2022-11-20T07:34:53;5.25;;;0.93;;
27209;SDS011;14721;42.668;23.386;2022-11-20T07:37:19;4.35;;;2.35;;
27209;SDS011;14721;42.668;23.386;2022-11-20T07:39:45;2.15;;;0.90;;
27209;SDS011;14721;42.668;23.386;2022-11-20T07:42:10;4.07;;;1.85;;
27209;SDS011;14721;42.668;23.386;2022-11-20T07:44:37;1.98;;;0.60;;
27209;SDS011;14721;42.668;23.386;2022-11-20T07:47:03;3.78;;;0.90;;
27209;SDS011;14721;42.668;23.386;2022-11-20T07:49:29;3.42;;;1.02;;
27209;SDS011;14721;42.668;23.386;2022-11-20T07:51:55;2.78;;;0.73;;
27209;SDS011;14721;42.668;23.386;2022-11-20T07:54:21;7.93;;;1.20;;
27209;SDS011;14721;42.668;23.386;2022-11-20T07:56:47;2.35;;;0.80;;
27209;SDS011;14721;42.668;23.386;2022-11-20T07:59:13;1.88;;;0.57;;
27209;SDS011;14721;42.668;23.386;2022-11-20T08:01:40;3.50;;;0.77;;
27209;SDS011;14721;42.668;23.386;2022-11-20T08:04:06;3.35;;;1.10;;
27209;SDS011;14721;42.668;23.386;2022-11-20T08:06:32;4.22;;;1.02;;
27209;SDS011;14721;42.668;23.386;2022-11-20T08:08:57;3.80;;;0.80;;
27209;SDS011;14721;42.668;23.386;2022-11-20T08:11:23;3.05;;;0.90;;
27209;SDS011;14721;42.668;23.386;2022-11-20T08:14:07;7.57;;;1.45;;
27209;SDS011;14721;42.668;23.386;2022-11-20T08:16:39;3.72;;;1.10;;
27209;SDS011;14721;42.668;23.386;2022-11-20T08:19:06;4.85;;;1.10;;
27209;SDS011;14721;42.668;23.386;2022-11-20T08:21:32;4.90;;;1.17;;
27209;SDS011;14721;42.668;23.386;2022-11-20T08:23:58;5.10;;;1.80;;
27209;SDS011;14721;42.668;23.386;2022-11-20T08:26:24;3.90;;;0.98;;
27209;SDS011;14721;42.668;23.386;2022-11-20T08:28:54;2.97;;;1.33;;
27209;SDS011;14721;42.668;23.386;2022-11-20T08:31:20;5.07;;;0.73;;
27209;SDS011;14721;42.668;23.386;2022-11-20T08:33:46;2.42;;;0.70;;
27209;SDS011;14721;42.668;23.386;2022-11-20T08:36:11;4.57;;;1.35;;
27209;SDS011;14721;42.668;23.386;2022-11-20T08:38:37;1.85;;;0.95;;
27209;SDS011;14721;42.668;23.386;2022-11-20T08:41:03;7.18;;;1.42;;
27209;SDS011;14721;42.668;23.386;2022-11-20T08:43:49;1.88;;;0.63;;
27209;SDS011;14721;42.668;23.386;2022-11-20T08:46:16;5.05;;;0.85;;
27209;SDS011;14721;42.668;23.386;2022-11-20T08:48:42;4.65;;;1.33;;
27209;SDS011;14721;42.668;23.386;2022-11-20T08:51:09;4.22;;;1.40;;
27209;SDS011;14721;42.668;23.386;2022-11-20T08:53:35;3.72;;;1.73;;
27209;SDS011;14721;42.668;23.386;2022-11-20T08:56:01;10.30;;;1.77;;
27209;SDS011;14721;42.668;23.386;2022-11-20T08:58:27;3.67;;;1.00;;
27209;SDS011;14721;42.668;23.386;2022-11-20T09:00:52;3.95;;;1.55;;
27209;SDS011;14721;42.668;23.386;2022-11-20T09:03:18;5.13;;;1.55;;
27209;SDS011;14721;42.668;23.386;2022-11-20T09:05:44;5.60;;;1.52;;
27209;SDS011;14721;42.668;23.386;2022-11-20T09:08:09;5.47;;;2.10;;
27209;SDS011;14721;42.668;23.386;2022-11-20T09:10:35;2.72;;;1.17;;
27209;SDS011;14721;42.668;23.386;2022-11-20T09:13:01;3.92;;;1.60;;
27209;SDS011;14721;42.668;23.386;2022-11-20T09:15:27;5.30;;;1.92;;
27209;SDS011;14721;42.668;23.386;2022-11-20T09:17:55;6.45;;;3.20;;
27209;SDS011;14721;42.668;23.386;2022-11-20T09:20:25;5.32;;;2.00;;
27209;SDS011;14721;42.668;23.386;2022-11-20T09:22:51;6.20;;;2.95;;
27209;SDS011;14721;42.668;23.386;2022-11-20T09:25:17;12.70;;;5.70;;
27209;SDS011;14721;42.668;23.386;2022-11-20T09:27:43;3.10;;;2.05;;
27209;SDS011;14721;42.668;23.386;2022-11-20T09:30:11;5.65;;;1.67;;
27209;SDS011;14721;42.668;23.386;2022-11-20T09:32:41;7.53;;;2.97;;
27209;SDS011;14721;42.668;23.386;2022-11-20T09:35:07;5.03;;;2.63;;
27209;SDS011;14721;42.668;23.386;2022-11-20T09:37:34;5.88;;;2.45;;
27209;SDS011;14721;42.668;23.386;2022-11-20T09:40:00;2.35;;;0.90;;
27209;SDS011;14721;42.668;23.386;2022-11-20T09:50:55;1.30;;;0.85;;
27209;SDS011;14721;42.668;23.386;2022-11-20T09:53:40;1.40;;;0.80;;
27209;SDS011;14721;42.668;23.386;2022-11-20T09:56:26;3.20;;;1.15;;
27209;SDS011;14721;42.668;23.386;2022-11-20T09:58:54;2.75;;;1.48;;
27209;SDS011;14721;42.668;23.386;2022-11-20T10:01:32;3.47;;;1.30;;
27209;SDS011;14721;42.668;23.386;2022-11-20T10:09:18;2.13;;;1.23;;
27209;SDS011;14721;42.668;23.386;2022-11-20T10:12:05;2.42;;;1.08;;
27209;SDS011;14721;42.668;23.386;2022-11-20T10:17:15;3.20;;;1.50;;
27209;SDS011;14721;42.668;23.386;2022-11-20T10:23:15;3.35;;;1.70;;
27209;SDS011;14721;42.668;23.386;2022-11-20T10:26:28;12.10;;;4.28;;
27209;SDS011;14721;42.668;23.386;2022-11-20T10:31:46;4.38;;;1.98;;
27209;SDS011;14721;42.668;23.386;2022-11-20T10:37:24;20.52;;;7.35;;
27209;SDS011;14721;42.668;23.386;2022-11-20T10:40:01;14.13;;;4.57;;
27209;SDS011;14721;42.668;23.386;2022-11-20T10:42:45;10.15;;;2.80;;
27209;SDS011;14721;42.668;23.386;2022-11-20T10:50:33;5.40;;;2.55;;
27209;SDS011;14721;42.668;23.386;2022-11-20T10:53:04;5.90;;;3.25;;
27209;SDS011;14721;42.668;23.386;2022-11-20T10:56:00;5.85;;;2.88;;
27209;SDS011;14721;42.668;23.386;2022-11-20T10:58:39;7.18;;;3.03;;
27209;SDS011;14721;42.668;23.386;2022-11-20T11:01:15;6.95;;;2.85;;
27209;SDS011;14721;42.668;23.386;2022-11-20T11:03:48;4.47;;;2.53;;
27209;SDS011;14721;42.668;23.386;2022-11-20T11:06:21;10.13;;;2.85;;
27209;SDS011;14721;42.668;23.386;2022-11-20T11:09:17;12.40;;;2.67;;
27209;SDS011;14721;42.668;23.386;2022-11-20T11:11:52;12.50;;;3.53;;
27209;SDS011;14721;42.668;23.386;2022-11-20T11:14:18;7.63;;;3.15;;
27209;SDS011;14721;42.668;23.386;2022-11-20T11:16:50;7.38;;;3.03;;
27209;SDS011;14721;42.668;23.386;2022-11-20T11:19:23;7.03;;;3.10;;
27209;SDS011;14721;42.668;23.386;2022-11-20T11:21:56;11.55;;;4.50;;
27209;SDS011;14721;42.668;23.386;2022-11-20T11:24:23;7.78;;;2.17;;
27209;SDS011;14721;42.668;23.386;2022-11-20T11:26:55;3.45;;;1.58;;
27209;SDS011;14721;42.668;23.386;2022-11-20T11:29:23;5.80;;;1.65;;
27209;SDS011;14721;42.668;23.386;2022-11-20T11:32:02;5.50;;;1.40;;
27209;SDS011;14721;42.668;23.386;2022-11-20T11:34:29;2.43;;;1.20;;
27209;SDS011;14721;42.668;23.386;2022-11-20T11:36:58;1.00;;;0.77;;
27209;SDS011;14721;42.668;23.386;2022-11-20T11:39:26;0.73;;;0.70;;
27209;SDS011;14721;42.668;23.386;2022-11-20T11:41:54;3.63;;;1.37;;
27209;SDS011;14721;42.668;23.386;2022-11-20T11:44:25;1.93;;;1.00;;
27209;SDS011;14721;42.668;23.386;2022-11-20T11:47:24;2.90;;;1.55;;
27209;SDS011;14721;42.668;23.386;2022-11-20T11:50:34;2.80;;;1.37;;
27209;SDS011;14721;42.668;23.386;2022-11-20T11:55:35;2.43;;;0.97;;
27209;SDS011;14721;42.668;23.386;2022-11-20T11:58:44;1.43;;;0.70;;
27209;SDS011;14721;42.668;23.386;2022-11-20T12:03:44;2.63;;;1.17;;
27209;SDS011;14721;42.668;23.386;2022-11-20T12:06:20;4.10;;;1.20;;
27209;SDS011;14721;42.668;23.386;2022-11-20T12:08:51;3.93;;;1.37;;
27209;SDS011;14721;42.668;23.386;2022-11-20T12:11:31;1.97;;;1.03;;
27209;SDS011;14721;42.668;23.386;2022-11-20T12:14:10;2.20;;;1.00;;
27209;SDS011;14721;42.668;23.386;2022-11-20T12:16:37;3.90;;;1.30;;
27209;SDS011;14721;42.668;23.386;2022-11-20T12:19:06;4.63;;;1.40;;
27209;SDS011;14721;42.668;23.386;2022-11-20T12:21:43;0.83;;;0.40;;
27209;SDS011;14721;42.668;23.386;2022-11-20T12:27:09;1.40;;;0.70;;
27209;SDS011;14721;42.668;23.386;2022-11-20T12:42:56;1.33;;;0.70;;
27209;SDS011;14721;42.668;23.386;2022-11-20T12:46:08;0.60;;;0.50;;
27209;SDS011;14721;42.668;23.386;2022-11-20T13:02:23;2.80;;;0.70;;
27209;SDS011;14721;42.668;23.386;2022-11-20T13:08:25;3.73;;;1.50;;
27209;SDS011;14721;42.668;23.386;2022-11-20T13:19:23;4.20;;;1.20;;
27209;SDS011;14721;42.668;23.386;2022-11-20T13:21:49;4.30;;;1.20;;
27209;SDS011;14721;42.668;23.386;2022-11-20T13:26:44;7.10;;;2.70;;
27209;SDS011;14721;42.668;23.386;2022-11-20T13:29:11;6.63;;;3.00;;
27209;SDS011;14721;42.668;23.386;2022-11-20T13:31:45;6.73;;;2.57;;
27209;SDS011;14721;42.668;23.386;2022-11-20T13:34:13;6.97;;;2.57;;
27209;SDS011;14721;42.668;23.386;2022-11-20T13:36:49;10.23;;;4.70;;
27209;SDS011;14721;42.668;23.386;2022-11-20T13:39:26;21.77;;;5.70;;
27209;SDS011;14721;42.668;23.386;2022-11-20T13:41:57;3.00;;;1.13;;
27209;SDS011;14721;42.668;23.386;2022-11-20T13:44:30;8.50;;;1.83;;
27209;SDS011;14721;42.668;23.386;2022-11-20T13:47:03;3.40;;;1.93;;
27209;SDS011;14721;42.668;23.386;2022-11-20T13:49:38;7.57;;;2.30;;
27209;SDS011;14721;42.668;23.386;2022-11-20T13:54:51;5.83;;;1.93;;
27209;SDS011;14721;42.668;23.386;2022-11-20T14:02:59;5.03;;;1.37;;
27209;SDS011;14721;42.668;23.386;2022-11-20T14:05:34;9.47;;;2.33;;
27209;SDS011;14721;42.668;23.386;2022-11-20T14:08:04;6.93;;;2.60;;
27209;SDS011;14721;42.668;23.386;2022-11-20T14:10:34;6.73;;;2.80;;
27209;SDS011;14721;42.668;23.386;2022-11-20T14:13:10;8.13;;;2.23;;
27209;SDS011;14721;42.668;23.386;2022-11-20T14:15:42;8.67;;;3.20;;
27209;SDS011;14721;42.668;23.386;2022-11-20T14:18:14;9.97;;;3.10;;
27209;SDS011;14721;42.668;23.386;2022-11-20T14:20:44;5.27;;;2.30;;
27209;SDS011;14721;42.668;23.386;2022-11-20T14:23:10;4.87;;;2.07;;
27209;SDS011;14721;42.668;23.386;2022-11-20T14:25:36;5.73;;;2.57;;
27209;SDS011;14721;42.668;23.386;2022-11-20T14:28:10;5.53;;;2.30;;
27209;SDS011;14721;42.668;23.386;2022-11-20T14:30:46;3.67;;;2.37;;
27209;SDS011;14721;42.668;23.386;2022-11-20T14:33:13;10.70;;;3.90;;
27209;SDS011;14721;42.668;23.386;2022-11-20T14:35:44;7.07;;;2.73;;
27209;SDS011;14721;42.668;23.386;2022-11-20T14:38:11;12.43;;;4.40;;
27209;SDS011;14721;42.668;23.386;2022-11-20T14:40:40;8.73;;;4.57;;
27209;SDS011;14721;42.668;23.386;2022-11-20T14:43:26;6.97;;;2.97;;
27209;SDS011;14721;42.668;23.386;2022-11-20T14:46:03;6.30;;;2.63;;
27209;SDS011;14721;42.668;23.386;2022-11-20T14:51:11;6.07;;;2.80;;
27209;SDS011;14721;42.668;23.386;2022-11-20T14:53:51;4.17;;;2.70;;
27209;SDS011;14721;42.668;23.386;2022-11-20T14:56:21;8.60;;;3.47;;
27209;SDS011;14721;42.668;23.386;2022-11-20T14:58:55;6.27;;;2.77;;
27209;SDS011;14721;42.668;23.386;2022-11-20T15:01:27;8.93;;;3.00;;
27209;SDS011;14721;42.668;23.386;2022-11-20T15:04:27;4.53;;;2.90;;
27209;SDS011;14721;42.668;23.386;2022-11-20T15:06:49;5.43;;;2.80;;
27209;SDS011;14721;42.668;23.386;2022-11-20T15:09:16;10.87;;;3.80;;
27209;SDS011;14721;42.668;23.386;2022-11-20T15:11:52;9.40;;;3.70;;
27209;SDS011;14721;42.668;23.386;2022-11-20T15:14:18;8.43;;;4.03;;
27209;SDS011;14721;42.668;23.386;2022-11-20T15:16:43;10.37;;;4.40;;
27209;SDS011;14721;42.668;23.386;2022-11-20T15:19:13;8.83;;;4.10;;
27209;SDS011;14721;42.668;23.386;2022-11-20T15:21:43;10.73;;;5.67;;
27209;SDS011;14721;42.668;23.386;2022-11-20T15:24:08;11.33;;;5.77;;
27209;SDS011;14721;42.668;23.386;2022-11-20T15:26:34;8.23;;;3.60;;
27209;SDS011;14721;42.668;23.386;2022-11-20T15:29:02;10.27;;;3.17;;
27209;SDS011;14721;42.668;23.386;2022-11-20T15:31:30;6.13;;;2.87;;
27209;SDS011;14721;42.668;23.386;2022-11-20T15:33:56;6.20;;;2.93;;
27209;SDS011;14721;42.668;23.386;2022-11-20T15:36:21;5.17;;;2.10;;
27209;SDS011;14721;42.668;23.386;2022-11-20T15:38:47;3.20;;;1.60;;
27209;SDS011;14721;42.668;23.386;2022-11-20T15:41:13;6.80;;;1.33;;
27209;SDS011;14721;42.668;23.386;2022-11-20T15:43:38;5.30;;;1.80;;
27209;SDS011;14721;42.668;23.386;2022-11-20T15:46:09;3.73;;;1.57;;
27209;SDS011;14721;42.668;23.386;2022-11-20T15:48:49;2.27;;;1.27;;
27209;SDS011;14721;42.668;23.386;2022-11-20T15:51:27;3.90;;;1.63;;
27209;SDS011;14721;42.668;23.386;2022-11-20T15:53:55;3.63;;;1.80;;
27209;SDS011;14721;42.668;23.386;2022-11-20T15:56:21;7.87;;;2.70;;
27209;SDS011;14721;42.668;23.386;2022-11-20T15:58:47;4.87;;;1.77;;
27209;SDS011;14721;42.668;23.386;2022-11-20T16:01:17;3.27;;;1.33;;
27209;SDS011;14721;42.668;23.386;2022-11-20T16:03:45;3.77;;;1.40;;
27209;SDS011;14721;42.668;23.386;2022-11-20T16:06:11;2.97;;;1.10;;
27209;SDS011;14721;42.668;23.386;2022-11-20T16:08:36;2.27;;;1.17;;
27209;SDS011;14721;42.668;23.386;2022-11-20T16:11:02;4.33;;;1.33;;
27209;SDS011;14721;42.668;23.386;2022-11-20T16:13:28;2.30;;;1.27;;
27209;SDS011;14721;42.668;23.386;2022-11-20T16:16:22;1.33;;;0.80;;
27209;SDS011;14721;42.668;23.386;2022-11-20T16:18:54;3.93;;;1.50;;
27209;SDS011;14721;42.668;23.386;2022-11-20T16:21:19;3.90;;;0.97;;
27209;SDS011;14721;42.668;23.386;2022-11-20T16:23:45;6.57;;;2.63;;
27209;SDS011;14721;42.668;23.386;2022-11-20T16:26:15;11.60;;;4.17;;
27209;SDS011;14721;42.668;23.386;2022-11-20T16:28:45;8.60;;;4.30;;
27209;SDS011;14721;42.668;23.386;2022-11-20T16:31:15;10.40;;;5.37;;
27209;SDS011;14721;42.668;23.386;2022-11-20T16:33:42;14.83;;;6.30;;
27209;SDS011;14721;42.668;23.386;2022-11-20T16:36:09;9.40;;;4.40;;